sensor_id;sensor_type;location;lat;lon;timestamp;pressure;altitude;pressure_sealevel;temperature;humidity
8451;BME280;4262;50.980;13.892;2023-05-07T05:01:13;50302.44;;;-142.97;32.18
8451;BME280;4262;50.980;13.892;2023-05-07T05:03:40;50360.94;;;-142.97;32.39
8451;BME280;4262;50.980;13.892;2023-05-07T05:06:08;50316.09;;;-142.97;32.55
8451;BME280;4262;50.980;13.892;2023-05-07T05:08:36;50333.63;;;-142.97;32.57
8451;BME280;4262;50.980;13.892;2023-05-07T05:11:03;50335.59;;;-142.97;32.60
8451;BME280;4262;50.980;13.892;2023-05-07T05:13:33;50288.78;;;-142.97;32.41
8451;BME280;4262;50.980;13.892;2023-05-07T05:16:05;50308.28;;;-142.97;32.34
8451;BME280;4262;50.980;13.892;2023-05-07T05:18:35;50329.72;;;-142.97;32.50
8451;BME280;4262;50.980;13.892;2023-05-07T05:21:03;50304.38;;;-142.97;32.27
8451;BME280;4262;50.980;13.892;2023-05-07T05:23:31;50357.03;;;-142.97;32.76
8451;BME280;4262;50.980;13.892;2023-05-07T05:25:58;50312.19;;;-142.97;33.13
8451;BME280;4262;50.980;13.892;2023-05-07T05:28:30;50316.09;;;-142.97;32.96
8451;BME280;4262;50.980;13.892;2023-05-07T05:30:57;50337.53;;;-142.97;32.79
8451;BME280;4262;50.980;13.892;2023-05-07T05:33:26;50329.72;;;-142.97;33.02
8451;BME280;4262;50.980;13.892;2023-05-07T05:36:01;50392.13;;;-142.97;32.83
8451;BME280;4262;50.980;13.892;2023-05-07T05:38:29;50347.28;;;-142.97;32.61
8451;BME280;4262;50.980;13.892;2023-05-07T05:40:56;50325.84;;;-142.97;32.45
8451;BME280;4262;50.980;13.892;2023-05-07T05:43:23;50321.94;;;-142.97;32.59
8451;BME280;4262;50.980;13.892;2023-05-07T05:45:50;50353.13;;;-142.97;32.96
8451;BME280;4262;50.980;13.892;2023-05-07T05:48:19;50296.59;;;-142.97;32.65
8451;BME280;4262;50.980;13.892;2023-05-07T05:50:46;50347.28;;;-142.97;33.09
8451;BME280;4262;50.980;13.892;2023-05-07T05:53:16;50339.47;;;-142.97;32.72
8451;BME280;4262;50.980;13.892;2023-05-07T05:55:43;50357.03;;;-142.97;32.86
8451;BME280;4262;50.980;13.892;2023-05-07T05:58:11;50302.44;;;-142.97;32.26
8451;BME280;4262;50.980;13.892;2023-05-07T06:00:42;50339.47;;;-142.97;32.96
8451;BME280;4262;50.980;13.892;2023-05-07T06:03:09;50312.19;;;-142.97;32.92
8451;BME280;4262;50.980;13.892;2023-05-07T06:05:36;50323.88;;;-142.97;31.84
8451;BME280;4262;50.980;13.892;2023-05-07T06:08:05;50339.47;;;-142.97;32.65
8451;BME280;4262;50.980;13.892;2023-05-07T06:10:35;50321.94;;;-142.97;32.21
8451;BME280;4262;50.980;13.892;2023-05-07T06:13:03;50337.53;;;-142.97;32.45
8451;BME280;4262;50.980;13.892;2023-05-07T06:15:31;50321.94;;;-142.97;32.11
8451;BME280;4262;50.980;13.892;2023-05-07T06:18:04;50343.38;;;-142.97;31.80
8451;BME280;4262;50.980;13.892;2023-05-07T06:20:31;50312.19;;;-142.97;32.12
8451;BME280;4262;50.980;13.892;2023-05-07T06:23:01;50337.53;;;-142.97;32.14
8451;BME280;4262;50.980;13.892;2023-05-07T06:25:29;50345.34;;;-142.97;32.23
8451;BME280;4262;50.980;13.892;2023-05-07T06:27:59;50318.03;;;-142.97;32.04
8451;BME280;4262;50.980;13.892;2023-05-07T06:30:26;50302.44;;;-142.97;32.03
8451;BME280;4262;50.980;13.892;2023-05-07T06:32:54;50327.78;;;-142.97;31.94
8451;BME280;4262;50.980;13.892;2023-05-07T06:35:22;50329.72;;;-142.97;31.90
8451;BME280;4262;50.980;13.892;2023-05-07T06:37:50;50314.13;;;-142.97;31.67
8451;BME280;4262;50.980;13.892;2023-05-07T06:40:21;50337.53;;;-142.97;32.33
8451;BME280;4262;50.980;13.892;2023-05-07T06:42:48;50329.72;;;-142.97;32.41
8451;BME280;4262;50.980;13.892;2023-05-07T06:45:28;50300.50;;;-142.97;31.70
8451;BME280;4262;50.980;13.892;2023-05-07T06:47:57;50290.75;;;-142.97;31.47
8451;BME280;4262;50.980;13.892;2023-05-07T06:50:24;50349.22;;;-142.97;31.32
8451;BME280;4262;50.980;13.892;2023-05-07T06:52:55;50314.13;;;-142.97;31.03
8451;BME280;4262;50.980;13.892;2023-05-07T06:55:22;50308.28;;;-142.97;31.10
8451;BME280;4262;50.980;13.892;2023-05-07T06:57:50;50325.84;;;-142.97;31.08
8451;BME280;4262;50.980;13.892;2023-05-07T07:00:19;50320.00;;;-142.97;31.50
8451;BME280;4262;50.980;13.892;2023-05-07T07:02:54;50329.72;;;-142.97;31.34
8451;BME280;4262;50.980;13.892;2023-05-07T07:05:23;50314.13;;;-142.97;32.14
8451;BME280;4262;50.980;13.892;2023-05-07T07:07:52;50327.78;;;-142.97;32.45
8451;BME280;4262;50.980;13.892;2023-05-07T07:10:18;50316.09;;;-142.97;32.02
8451;BME280;4262;50.980;13.892;2023-05-07T07:12:45;50349.22;;;-142.97;31.81
8451;BME280;4262;50.980;13.892;2023-05-07T07:15:13;50337.53;;;-142.97;32.33
8451;BME280;4262;50.980;13.892;2023-05-07T07:17:41;50329.72;;;-142.97;32.23
8451;BME280;4262;50.980;13.892;2023-05-07T07:20:10;50318.03;;;-142.97;31.96
8451;BME280;4262;50.980;13.892;2023-05-07T07:22:37;50312.19;;;-142.97;32.31
8451;BME280;4262;50.980;13.892;2023-05-07T07:25:04;50347.28;;;-142.97;31.85
8451;BME280;4262;50.980;13.892;2023-05-07T07:27:33;50304.38;;;-142.97;32.02
8451;BME280;4262;50.980;13.892;2023-05-07T07:30:00;50310.25;;;-142.97;31.91
8451;BME280;4262;50.980;13.892;2023-05-07T07:32:29;50353.13;;;-142.97;31.75
8451;BME280;4262;50.980;13.892;2023-05-07T07:34:58;50353.13;;;-142.97;31.35
8451;BME280;4262;50.980;13.892;2023-05-07T07:37:28;50335.59;;;-142.97;31.90
8451;BME280;4262;50.980;13.892;2023-05-07T07:39:55;50327.78;;;-142.97;30.88
8451;BME280;4262;50.980;13.892;2023-05-07T07:42:22;50329.72;;;-142.97;31.02
8451;BME280;4262;50.980;13.892;2023-05-07T07:44:49;50325.84;;;-142.97;31.28
8451;BME280;4262;50.980;13.892;2023-05-07T07:47:19;50314.13;;;-142.97;31.29
8451;BME280;4262;50.980;13.892;2023-05-07T07:49:47;50302.44;;;-142.97;31.44
8451;BME280;4262;50.980;13.892;2023-05-07T07:52:14;50327.78;;;-142.97;31.58
8451;BME280;4262;50.980;13.892;2023-05-07T07:54:44;50331.69;;;-142.97;31.41
8451;BME280;4262;50.980;13.892;2023-05-07T07:57:11;50304.38;;;-142.97;31.25
8451;BME280;4262;50.980;13.892;2023-05-07T07:59:38;50321.94;;;-142.97;31.10
8451;BME280;4262;50.980;13.892;2023-05-07T08:02:06;50306.34;;;-142.97;30.70
8451;BME280;4262;50.980;13.892;2023-05-07T08:04:33;50318.03;;;-142.97;31.03
8451;BME280;4262;50.980;13.892;2023-05-07T08:07:03;50321.94;;;-142.97;31.28
8451;BME280;4262;50.980;13.892;2023-05-07T08:09:34;50329.72;;;-142.97;30.81
8451;BME280;4262;50.980;13.892;2023-05-07T08:12:04;50329.72;;;-142.97;31.10
8451;BME280;4262;50.980;13.892;2023-05-07T08:14:33;50325.84;;;-142.97;30.66
8451;BME280;4262;50.980;13.892;2023-05-07T08:17:00;50341.44;;;-142.97;31.39
8451;BME280;4262;50.980;13.892;2023-05-07T08:19:27;50312.19;;;-142.97;31.62
8451;BME280;4262;50.980;13.892;2023-05-07T08:21:54;50323.88;;;-142.97;30.94
8451;BME280;4262;50.980;13.892;2023-05-07T08:24:23;50323.88;;;-142.97;31.22
8451;BME280;4262;50.980;13.892;2023-05-07T08:26:49;50360.94;;;-142.97;32.21
8451;BME280;4262;50.980;13.892;2023-05-07T08:29:18;50318.03;;;-142.97;31.72
8451;BME280;4262;50.980;13.892;2023-05-07T08:31:45;50308.28;;;-142.97;31.56
8451;BME280;4262;50.980;13.892;2023-05-07T08:34:13;50337.53;;;-142.97;31.02
8451;BME280;4262;50.980;13.892;2023-05-07T08:36:43;50298.53;;;-142.97;30.93
8451;BME280;4262;50.980;13.892;2023-05-07T08:39:16;50321.94;;;-142.97;31.24
8451;BME280;4262;50.980;13.892;2023-05-07T08:41:46;50312.19;;;-142.97;31.67
8451;BME280;4262;50.980;13.892;2023-05-07T08:44:16;50298.53;;;-142.97;31.81
8451;BME280;4262;50.980;13.892;2023-05-07T08:46:49;50329.72;;;-142.97;31.23
8451;BME280;4262;50.980;13.892;2023-05-07T08:49:22;50308.28;;;-142.97;30.47
8451;BME280;4262;50.980;13.892;2023-05-07T08:51:50;50310.25;;;-142.97;30.57
8451;BME280;4262;50.980;13.892;2023-05-07T08:54:20;50335.59;;;-142.97;30.91
8451;BME280;4262;50.980;13.892;2023-05-07T08:56:48;50302.44;;;-142.97;30.50
8451;BME280;4262;50.980;13.892;2023-05-07T08:59:18;50310.25;;;-142.97;30.56
8451;BME280;4262;50.980;13.892;2023-05-07T09:01:44;50318.03;;;-142.97;30.70
8451;BME280;4262;50.980;13.892;2023-05-07T09:04:13;50306.34;;;-142.97;30.39
8451;BME280;4262;50.980;13.892;2023-05-07T09:06:40;50312.19;;;-142.97;31.22
8451;BME280;4262;50.980;13.892;2023-05-07T09:09:14;50329.72;;;-142.97;31.00
8451;BME280;4262;50.980;13.892;2023-05-07T09:11:41;50321.94;;;-142.97;30.62
8451;BME280;4262;50.980;13.892;2023-05-07T09:14:09;50321.94;;;-142.97;30.04
8451;BME280;4262;50.980;13.892;2023-05-07T09:16:39;50288.78;;;-142.97;30.36
8451;BME280;4262;50.980;13.892;2023-05-07T09:19:07;50298.53;;;-142.97;30.52
8451;BME280;4262;50.980;13.892;2023-05-07T09:21:37;50294.63;;;-142.97;30.53
8451;BME280;4262;50.980;13.892;2023-05-07T09:24:07;50337.53;;;-142.97;30.72
8451;BME280;4262;50.980;13.892;2023-05-07T09:26:38;50321.94;;;-142.97;30.52
8451;BME280;4262;50.980;13.892;2023-05-07T09:29:07;50304.38;;;-142.97;31.08
8451;BME280;4262;50.980;13.892;2023-05-07T09:31:36;50292.69;;;-142.97;30.63
8451;BME280;4262;50.980;13.892;2023-05-07T09:34:05;50288.78;;;-142.97;30.56
8451;BME280;4262;50.980;13.892;2023-05-07T09:36:55;50310.25;;;-142.97;29.80
8451;BME280;4262;50.980;13.892;2023-05-07T09:39:44;50327.78;;;-142.97;29.96
8451;BME280;4262;50.980;13.892;2023-05-07T09:42:14;50296.59;;;-142.97;29.72
8451;BME280;4262;50.980;13.892;2023-05-07T09:44:43;50312.19;;;-142.97;29.26
8451;BME280;4262;50.980;13.892;2023-05-07T09:47:18;50290.75;;;-142.97;29.94
8451;BME280;4262;50.980;13.892;2023-05-07T09:49:49;50294.63;;;-142.97;30.67
8451;BME280;4262;50.980;13.892;2023-05-07T09:52:21;50314.13;;;-142.97;29.12
8451;BME280;4262;50.980;13.892;2023-05-07T09:54:52;50288.78;;;-142.97;28.85
8451;BME280;4262;50.980;13.892;2023-05-07T09:57:23;50329.72;;;-142.97;29.36
8451;BME280;4262;50.980;13.892;2023-05-07T09:59:56;50306.34;;;-142.97;29.07
8451;BME280;4262;50.980;13.892;2023-05-07T10:02:25;50292.69;;;-142.97;28.85
8451;BME280;4262;50.980;13.892;2023-05-07T10:04:54;50312.19;;;-142.97;29.03
8451;BME280;4262;50.980;13.892;2023-05-07T10:07:28;50288.78;;;-142.97;29.49
8451;BME280;4262;50.980;13.892;2023-05-07T10:10:01;50288.78;;;-142.97;28.82
8451;BME280;4262;50.980;13.892;2023-05-07T10:12:35;50302.44;;;-142.97;29.44
8451;BME280;4262;50.980;13.892;2023-05-07T10:15:11;50316.09;;;-142.97;29.36
8451;BME280;4262;50.980;13.892;2023-05-07T10:17:42;50302.44;;;-142.97;29.49
8451;BME280;4262;50.980;13.892;2023-05-07T10:20:11;50347.28;;;-142.97;29.18
8451;BME280;4262;50.980;13.892;2023-05-07T10:22:45;50302.44;;;-142.97;29.23
8451;BME280;4262;50.980;13.892;2023-05-07T10:25:18;50308.28;;;-142.97;29.65
8451;BME280;4262;50.980;13.892;2023-05-07T10:27:48;50314.13;;;-142.97;29.63
8451;BME280;4262;50.980;13.892;2023-05-07T10:30:45;50318.03;;;-142.97;28.95
8451;BME280;4262;50.980;13.892;2023-05-07T10:33:19;50335.59;;;-142.97;29.65
8451;BME280;4262;50.980;13.892;2023-05-07T10:35:49;50349.22;;;-142.97;29.58
8451;BME280;4262;50.980;13.892;2023-05-07T10:38:18;50316.09;;;-142.97;28.80
8451;BME280;4262;50.980;13.892;2023-05-07T10:40:46;50310.25;;;-142.97;28.84
8451;BME280;4262;50.980;13.892;2023-05-07T10:43:13;50325.84;;;-142.97;29.13
8451;BME280;4262;50.980;13.892;2023-05-07T10:46:10;50290.75;;;-142.97;28.85
8451;BME280;4262;50.980;13.892;2023-05-07T10:49:06;50306.34;;;-142.97;28.90
8451;BME280;4262;50.980;13.892;2023-05-07T10:51:42;50323.88;;;-142.97;28.53
8451;BME280;4262;50.980;13.892;2023-05-07T10:54:26;50290.75;;;-142.97;28.93
8451;BME280;4262;50.980;13.892;2023-05-07T10:57:32;50321.94;;;-142.97;28.97
8451;BME280;4262;50.980;13.892;2023-05-07T11:00:42;50312.19;;;-142.97;28.88
8451;BME280;4262;50.980;13.892;2023-05-07T11:03:18;50318.03;;;-142.97;29.36
8451;BME280;4262;50.980;13.892;2023-05-07T11:06:09;50318.03;;;-142.97;29.18
8451;BME280;4262;50.980;13.892;2023-05-07T11:08:54;50298.53;;;-142.97;28.32
8451;BME280;4262;50.980;13.892;2023-05-07T11:11:46;50288.78;;;-142.97;27.75
8451;BME280;4262;50.980;13.892;2023-05-07T11:14:44;50306.34;;;-142.97;28.24
8451;BME280;4262;50.980;13.892;2023-05-07T11:17:15;50279.03;;;-142.97;28.87
8451;BME280;4262;50.980;13.892;2023-05-07T11:19:48;50314.13;;;-142.97;28.05
8451;BME280;4262;50.980;13.892;2023-05-07T11:22:41;50337.53;;;-142.97;27.97
8451;BME280;4262;50.980;13.892;2023-05-07T11:25:27;50316.09;;;-142.97;28.42
8451;BME280;4262;50.980;13.892;2023-05-07T11:28:07;50325.84;;;-142.97;27.88
8451;BME280;4262;50.980;13.892;2023-05-07T11:30:36;50308.28;;;-142.97;27.98
8451;BME280;4262;50.980;13.892;2023-05-07T11:33:08;50279.03;;;-142.97;27.57
8451;BME280;4262;50.980;13.892;2023-05-07T11:35:37;50310.25;;;-142.97;27.71
8451;BME280;4262;50.980;13.892;2023-05-07T11:38:07;50288.78;;;-142.97;27.60
8451;BME280;4262;50.980;13.892;2023-05-07T11:40:48;50294.63;;;-142.97;27.65
8451;BME280;4262;50.980;13.892;2023-05-07T11:43:17;50292.69;;;-142.97;27.55
8451;BME280;4262;50.980;13.892;2023-05-07T11:45:44;50269.28;;;-142.97;27.04
8451;BME280;4262;50.980;13.892;2023-05-07T11:48:12;50279.03;;;-142.97;27.36
8451;BME280;4262;50.980;13.892;2023-05-07T11:50:50;50253.69;;;-142.97;27.86
8451;BME280;4262;50.980;13.892;2023-05-07T11:53:17;50286.84;;;-142.97;27.36
8451;BME280;4262;50.980;13.892;2023-05-07T11:55:44;50271.25;;;-142.97;27.11
8451;BME280;4262;50.980;13.892;2023-05-07T11:58:12;50271.25;;;-142.97;27.46
8451;BME280;4262;50.980;13.892;2023-05-07T12:00:49;50282.94;;;-142.97;27.12
8451;BME280;4262;50.980;13.892;2023-05-07T12:03:16;50292.69;;;-142.97;26.81
8451;BME280;4262;50.980;13.892;2023-05-07T12:05:44;50290.75;;;-142.97;27.76
8451;BME280;4262;50.980;13.892;2023-05-07T12:08:13;50281.00;;;-142.97;27.45
8451;BME280;4262;50.980;13.892;2023-05-07T12:10:42;50275.16;;;-142.97;28.02
8451;BME280;4262;50.980;13.892;2023-05-07T12:13:14;50279.03;;;-142.97;28.35
8451;BME280;4262;50.980;13.892;2023-05-07T12:15:41;50279.03;;;-142.97;28.69
8451;BME280;4262;50.980;13.892;2023-05-07T12:18:10;50265.41;;;-142.97;27.78
8451;BME280;4262;50.980;13.892;2023-05-07T12:20:39;50236.16;;;-142.97;27.62
8451;BME280;4262;50.980;13.892;2023-05-07T12:23:06;50249.81;;;-142.97;27.29
8451;BME280;4262;50.980;13.892;2023-05-07T12:25:34;50275.16;;;-142.97;27.93
8451;BME280;4262;50.980;13.892;2023-05-07T12:28:01;50310.25;;;-142.97;27.15
8451;BME280;4262;50.980;13.892;2023-05-07T12:30:31;50281.00;;;-142.97;27.88
8451;BME280;4262;50.980;13.892;2023-05-07T12:32:58;50288.78;;;-142.97;27.65
8451;BME280;4262;50.980;13.892;2023-05-07T12:35:30;50292.69;;;-142.97;27.25
8451;BME280;4262;50.980;13.892;2023-05-07T12:37:58;50294.63;;;-142.97;27.66
8451;BME280;4262;50.980;13.892;2023-05-07T12:40:36;50273.19;;;-142.97;29.39
8451;BME280;4262;50.980;13.892;2023-05-07T12:43:03;50298.53;;;-142.97;29.83
8451;BME280;4262;50.980;13.892;2023-05-07T12:45:30;50321.94;;;-142.97;29.43
8451;BME280;4262;50.980;13.892;2023-05-07T12:48:01;50290.75;;;-142.97;29.04
8451;BME280;4262;50.980;13.892;2023-05-07T12:50:32;50292.69;;;-142.97;29.64
8451;BME280;4262;50.980;13.892;2023-05-07T12:52:59;50306.34;;;-142.97;29.51
8451;BME280;4262;50.980;13.892;2023-05-07T12:55:29;50300.50;;;-142.97;29.26
8451;BME280;4262;50.980;13.892;2023-05-07T12:57:55;50323.88;;;-142.97;29.42
8451;BME280;4262;50.980;13.892;2023-05-07T13:00:34;50316.09;;;-142.97;28.99
8451;BME280;4262;50.980;13.892;2023-05-07T13:03:01;50312.19;;;-142.97;29.63
8451;BME280;4262;50.980;13.892;2023-05-07T13:05:28;50271.25;;;-142.97;29.58
8451;BME280;4262;50.980;13.892;2023-05-07T13:07:57;50279.03;;;-142.97;29.69
8451;BME280;4262;50.980;13.892;2023-05-07T13:10:26;50284.91;;;-142.97;29.39
8451;BME280;4262;50.980;13.892;2023-05-07T13:12:53;50314.13;;;-142.97;29.53
8451;BME280;4262;50.980;13.892;2023-05-07T13:15:20;50312.19;;;-142.97;28.85
8451;BME280;4262;50.980;13.892;2023-05-07T13:17:47;50300.50;;;-142.97;28.92
8451;BME280;4262;50.980;13.892;2023-05-07T13:20:15;50269.28;;;-142.97;29.23
8451;BME280;4262;50.980;13.892;2023-05-07T13:22:42;50306.34;;;-142.97;29.50
8451;BME280;4262;50.980;13.892;2023-05-07T13:25:11;50279.03;;;-142.97;28.89
8451;BME280;4262;50.980;13.892;2023-05-07T13:27:37;50251.75;;;-142.97;29.17
8451;BME280;4262;50.980;13.892;2023-05-07T13:30:04;50316.09;;;-142.97;29.29
8451;BME280;4262;50.980;13.892;2023-05-07T13:32:31;50288.78;;;-142.97;28.88
8451;BME280;4262;50.980;13.892;2023-05-07T13:34:58;50329.72;;;-142.97;29.19
8451;BME280;4262;50.980;13.892;2023-05-07T13:37:25;50316.09;;;-142.97;30.30
8451;BME280;4262;50.980;13.892;2023-05-07T13:39:52;50298.53;;;-142.97;29.75
8451;BME280;4262;50.980;13.892;2023-05-07T13:42:21;50304.38;;;-142.97;30.06
8451;BME280;4262;50.980;13.892;2023-05-07T13:44:48;50310.25;;;-142.97;30.04
8451;BME280;4262;50.980;13.892;2023-05-07T13:47:15;50300.50;;;-142.97;29.82
8451;BME280;4262;50.980;13.892;2023-05-07T13:49:43;50333.63;;;-142.97;29.30
8451;BME280;4262;50.980;13.892;2023-05-07T13:52:09;50292.69;;;-142.97;28.66
8451;BME280;4262;50.980;13.892;2023-05-07T13:54:37;50269.28;;;-142.97;29.40
8451;BME280;4262;50.980;13.892;2023-05-07T13:57:04;50275.16;;;-142.97;29.25
8451;BME280;4262;50.980;13.892;2023-05-07T13:59:32;50261.50;;;-142.97;28.18
8451;BME280;4262;50.980;13.892;2023-05-07T14:01:59;50271.25;;;-142.97;28.09
8451;BME280;4262;50.980;13.892;2023-05-07T14:04:25;50251.75;;;-142.97;28.03
8451;BME280;4262;50.980;13.892;2023-05-07T14:06:52;50282.94;;;-142.97;27.85
8451;BME280;4262;50.980;13.892;2023-05-07T14:09:19;50263.44;;;-142.97;28.25
8451;BME280;4262;50.980;13.892;2023-05-07T14:11:46;50275.16;;;-142.97;28.61
8451;BME280;4262;50.980;13.892;2023-05-07T14:14:13;50290.75;;;-142.97;28.94
8451;BME280;4262;50.980;13.892;2023-05-07T14:16:41;50292.69;;;-142.97;29.24
8451;BME280;4262;50.980;13.892;2023-05-07T14:19:08;50302.44;;;-142.97;29.68
8451;BME280;4262;50.980;13.892;2023-05-07T14:21:35;50302.44;;;-142.97;28.96
8451;BME280;4262;50.980;13.892;2023-05-07T14:24:02;50323.88;;;-142.97;28.72
8451;BME280;4262;50.980;13.892;2023-05-07T14:26:29;50298.53;;;-142.97;29.83
8451;BME280;4262;50.980;13.892;2023-05-07T14:28:56;50275.16;;;-142.97;30.06
8451;BME280;4262;50.980;13.892;2023-05-07T14:31:24;50314.13;;;-142.97;29.70
8451;BME280;4262;50.980;13.892;2023-05-07T14:33:52;50304.38;;;-142.97;29.26
8451;BME280;4262;50.980;13.892;2023-05-07T14:36:19;50329.72;;;-142.97;29.17
8451;BME280;4262;50.980;13.892;2023-05-07T14:38:48;50329.72;;;-142.97;29.36
8451;BME280;4262;50.980;13.892;2023-05-07T14:41:16;50312.19;;;-142.97;29.27
8451;BME280;4262;50.980;13.892;2023-05-07T14:43:43;50296.59;;;-142.97;29.16
8451;BME280;4262;50.980;13.892;2023-05-07T14:46:16;50314.13;;;-142.97;29.87
8451;BME280;4262;50.980;13.892;2023-05-07T14:48:43;50337.53;;;-142.97;29.92
8451;BME280;4262;50.980;13.892;2023-05-07T14:51:13;50288.78;;;-142.97;30.25
8451;BME280;4262;50.980;13.892;2023-05-07T14:53:40;50302.44;;;-142.97;30.11
8451;BME280;4262;50.980;13.892;2023-05-07T14:56:07;50279.03;;;-142.97;31.08
8451;BME280;4262;50.980;13.892;2023-05-07T14:58:34;50300.50;;;-142.97;30.36
8451;BME280;4262;50.980;13.892;2023-05-07T15:01:03;50294.63;;;-142.97;29.93
8451;BME280;4262;50.980;13.892;2023-05-07T15:03:29;50298.53;;;-142.97;30.25
8451;BME280;4262;50.980;13.892;2023-05-07T15:06:18;50341.44;;;-142.97;30.43
8451;BME280;4262;50.980;13.892;2023-05-07T15:08:45;50314.13;;;-142.97;30.77
8451;BME280;4262;50.980;13.892;2023-05-07T15:11:13;50306.34;;;-142.97;30.81
8451;BME280;4262;50.980;13.892;2023-05-07T15:13:41;50351.19;;;-142.97;30.82
8451;BME280;4262;50.980;13.892;2023-05-07T15:16:08;50306.34;;;-142.97;30.35
8451;BME280;4262;50.980;13.892;2023-05-07T15:18:35;50325.84;;;-142.97;30.33
8451;BME280;4262;50.980;13.892;2023-05-07T15:21:04;50304.38;;;-142.97;30.50
8451;BME280;4262;50.980;13.892;2023-05-07T15:23:33;50292.69;;;-142.97;30.67
8451;BME280;4262;50.980;13.892;2023-05-07T15:26:00;50345.34;;;-142.97;29.90
8451;BME280;4262;50.980;13.892;2023-05-07T15:28:27;50300.50;;;-142.97;29.76
8451;BME280;4262;50.980;13.892;2023-05-07T15:30:58;50292.69;;;-142.97;30.69
8451;BME280;4262;50.980;13.892;2023-05-07T15:33:25;50312.19;;;-142.97;30.37
8451;BME280;4262;50.980;13.892;2023-05-07T15:35:52;50320.00;;;-142.97;30.70
8451;BME280;4262;50.980;13.892;2023-05-07T15:38:18;50296.59;;;-142.97;30.52
8451;BME280;4262;50.980;13.892;2023-05-07T15:40:48;50329.72;;;-142.97;29.94
8451;BME280;4262;50.980;13.892;2023-05-07T15:43:15;50302.44;;;-142.97;29.50
8451;BME280;4262;50.980;13.892;2023-05-07T15:45:43;50329.72;;;-142.97;30.24
8451;BME280;4262;50.980;13.892;2023-05-07T15:48:10;50292.69;;;-142.97;30.42
8451;BME280;4262;50.980;13.892;2023-05-07T15:50:38;50360.94;;;-142.97;29.89
8451;BME280;4262;50.980;13.892;2023-05-07T15:53:05;50296.59;;;-142.97;29.54
8451;BME280;4262;50.980;13.892;2023-05-07T15:55:32;50288.78;;;-142.97;29.93
8451;BME280;4262;50.980;13.892;2023-05-07T15:58:00;50321.94;;;-142.97;30.30
8451;BME280;4262;50.980;13.892;2023-05-07T16:00:28;50306.34;;;-142.97;30.15
8451;BME280;4262;50.980;13.892;2023-05-07T16:02:55;50335.59;;;-142.97;30.97
8451;BME280;4262;50.980;13.892;2023-05-07T16:05:22;50349.22;;;-142.97;30.44
8451;BME280;4262;50.980;13.892;2023-05-07T16:07:49;50362.88;;;-142.97;30.76
8451;BME280;4262;50.980;13.892;2023-05-07T16:10:17;50349.22;;;-142.97;29.95
8451;BME280;4262;50.980;13.892;2023-05-07T16:12:44;50314.13;;;-142.97;30.32
8451;BME280;4262;50.980;13.892;2023-05-07T16:15:12;50306.34;;;-142.97;30.16
8451;BME280;4262;50.980;13.892;2023-05-07T16:17:39;50288.78;;;-142.97;30.61
8451;BME280;4262;50.980;13.892;2023-05-07T16:20:07;50308.28;;;-142.97;30.60
8451;BME280;4262;50.980;13.892;2023-05-07T16:22:37;50302.44;;;-142.97;30.44
8451;BME280;4262;50.980;13.892;2023-05-07T16:25:04;50331.69;;;-142.97;30.71
8451;BME280;4262;50.980;13.892;2023-05-07T16:27:31;50308.28;;;-142.97;30.81
8451;BME280;4262;50.980;13.892;2023-05-07T16:29:57;50339.47;;;-142.97;30.67
8451;BME280;4262;50.980;13.892;2023-05-07T16:32:26;50288.78;;;-142.97;30.00
8451;BME280;4262;50.980;13.892;2023-05-07T16:34:54;50323.88;;;-142.97;29.60
8451;BME280;4262;50.980;13.892;2023-05-07T16:37:21;50318.03;;;-142.97;29.20
8451;BME280;4262;50.980;13.892;2023-05-07T16:39:48;50310.25;;;-142.97;30.32
8451;BME280;4262;50.980;13.892;2023-05-07T16:42:15;50329.72;;;-142.97;29.87
8451;BME280;4262;50.980;13.892;2023-05-07T16:44:41;50353.13;;;-142.97;30.46
8451;BME280;4262;50.980;13.892;2023-05-07T16:47:08;50380.44;;;-142.97;29.85
8451;BME280;4262;50.980;13.892;2023-05-07T16:49:36;50333.63;;;-142.97;30.28
8451;BME280;4262;50.980;13.892;2023-05-07T16:52:02;50337.53;;;-142.97;30.08
8451;BME280;4262;50.980;13.892;2023-05-07T16:54:30;50349.22;;;-142.97;30.32
8451;BME280;4262;50.980;13.892;2023-05-07T16:56:57;50347.28;;;-142.97;30.78
8451;BME280;4262;50.980;13.892;2023-05-07T16:59:24;50355.09;;;-142.97;30.60
8451;BME280;4262;50.980;13.892;2023-05-07T17:01:50;50341.44;;;-142.97;30.47
8451;BME280;4262;50.980;13.892;2023-05-07T17:04:17;50357.03;;;-142.97;30.67
8451;BME280;4262;50.980;13.892;2023-05-07T17:06:45;50343.38;;;-142.97;30.71
8451;BME280;4262;50.980;13.892;2023-05-07T17:09:12;50366.78;;;-142.97;31.03
8451;BME280;4262;50.980;13.892;2023-05-07T17:11:39;50374.56;;;-142.97;31.04
8451;BME280;4262;50.980;13.892;2023-05-07T17:14:05;50335.59;;;-142.97;30.43
8451;BME280;4262;50.980;13.892;2023-05-07T17:16:32;50353.13;;;-142.97;30.69
8451;BME280;4262;50.980;13.892;2023-05-07T17:18:59;50353.13;;;-142.97;30.25
8451;BME280;4262;50.980;13.892;2023-05-07T17:21:25;50364.81;;;-142.97;29.95
8451;BME280;4262;50.980;13.892;2023-05-07T17:23:53;50321.94;;;-142.97;29.17
8451;BME280;4262;50.980;13.892;2023-05-07T17:26:20;50337.53;;;-142.97;29.67
8451;BME280;4262;50.980;13.892;2023-05-07T17:28:47;50339.47;;;-142.97;29.85
8451;BME280;4262;50.980;13.892;2023-05-07T17:31:14;50325.84;;;-142.97;30.27
8451;BME280;4262;50.980;13.892;2023-05-07T17:33:40;50345.34;;;-142.97;29.98
8451;BME280;4262;50.980;13.892;2023-05-07T17:36:07;50337.53;;;-142.97;30.42
8451;BME280;4262;50.980;13.892;2023-05-07T17:38:34;50335.59;;;-142.97;30.17
8451;BME280;4262;50.980;13.892;2023-05-07T17:41:02;50347.28;;;-142.97;30.46
8451;BME280;4262;50.980;13.892;2023-05-07T17:43:29;50325.84;;;-142.97;29.63
8451;BME280;4262;50.980;13.892;2023-05-07T17:45:55;50353.13;;;-142.97;29.75
8451;BME280;4262;50.980;13.892;2023-05-07T17:48:22;50331.69;;;-142.97;30.40
8451;BME280;4262;50.980;13.892;2023-05-07T17:50:49;50347.28;;;-142.97;30.54
8451;BME280;4262;50.980;13.892;2023-05-07T17:53:16;50349.22;;;-142.97;31.10
8451;BME280;4262;50.980;13.892;2023-05-07T17:55:43;50364.81;;;-142.97;30.52
8451;BME280;4262;50.980;13.892;2023-05-07T17:58:12;50327.78;;;-142.97;30.50
8451;BME280;4262;50.980;13.892;2023-05-07T18:00:40;50331.69;;;-142.97;30.47
8451;BME280;4262;50.980;13.892;2023-05-07T18:03:07;50327.78;;;-142.97;29.89